首页
METAR-TAF:

METAR-TAF

机场 :

明斯特奥斯纳布吕克国际机场

明斯特 / 奥斯纳布吕克, 德国

纬度: 52-08N, 经度: 007-42E, 海拔: 48米

当前天气观测

该预报发布于17分钟前的17:50 UTC
风速2节,风向多变
温度 32°C
湿度 32%
气压 1018 hPa
能见度10公里或以上
1500米以下无云,无积雨云

METAR: EDDG 231750Z VRB02KT CAVOK 32/13 Q1018 NOSIG

时间: 20:07 (18:07 UTC)

预报

该预报发布于1小时和7分钟前的17:00 UTC
预报有效从23日的 18点(UTC)到 24日的 18点(UTC)
风速3节,风向多变
能见度10公里或以上
1500米以下无云,无积雨云
短暂存在
从 24日的 08点(UTC)到 24日的 18点(UTC)
风速6节,风向南转南东

TAF: EDDG 231700Z 2318/2418 VRB03KT CAVOK TEMPO 2408/2418 16006KT

超过4000个机场的气象观测和天气预报(METAR&TAF报告)。

可查询的气象台以黄色和红色小点在地图上表示。

将鼠标移到小点上方,可查看气象台名称。

然后点击查看天气观测和预报。

如需切换地图:点击带黑十字的绿色按钮放大地图;点击带横线的绿色按钮缩小地图;或者点击绿色箭头查看邻近地区的地图。


METAR-TAF: